createdAt,value
2022-09-11T00:22:51.634Z,28.27
2022-09-11T00:25:22.506Z,28.22
2022-09-11T00:27:55.113Z,28.18
2022-09-11T00:30:26.426Z,28.13
2022-09-11T00:32:57.509Z,28.18
2022-09-11T00:35:28.847Z,28.19
2022-09-11T00:37:59.849Z,28.19
2022-09-11T00:40:30.746Z,28.23
2022-09-11T00:43:01.915Z,28.22
2022-09-11T00:45:34.805Z,28.27
2022-09-11T00:48:06.716Z,28.31
2022-09-11T00:50:37.923Z,28.35
2022-09-11T00:53:10.939Z,28.40
2022-09-11T00:55:46.498Z,28.38
2022-09-11T00:58:26.575Z,28.40
2022-09-11T01:00:59.762Z,28.30
2022-09-11T01:03:31.862Z,28.36
2022-09-11T01:06:04.673Z,28.40
2022-09-11T01:08:38.243Z,28.46
2022-09-11T01:11:30.893Z,28.47
2022-09-11T01:14:23.089Z,28.45
2022-09-11T01:17:33.745Z,28.49
2022-09-11T01:20:30.887Z,28.54
2022-09-11T01:23:22.981Z,28.40
2022-09-11T01:25:56.350Z,28.46
2022-09-11T01:28:36.396Z,28.54
2022-09-11T01:31:14.867Z,28.60
2022-09-11T01:33:59.223Z,28.53
2022-09-11T01:36:38.608Z,28.50
2022-09-11T01:39:09.766Z,28.49
2022-09-11T01:42:08.087Z,28.56
2022-09-11T01:44:56.544Z,28.53
2022-09-11T01:47:30.414Z,28.59
2022-09-11T01:50:15.100Z,28.59
2022-09-11T01:53:00.899Z,28.66
2022-09-11T01:55:40.717Z,28.70
2022-09-11T01:58:16.344Z,28.66
2022-09-11T02:00:54.182Z,28.72
2022-09-11T02:03:34.400Z,28.75
2022-09-11T02:06:10.937Z,28.78
2022-09-11T02:08:46.935Z,28.75
2022-09-11T02:11:23.607Z,28.86
2022-09-11T02:14:16.376Z,28.80
2022-09-11T02:17:03.400Z,28.83
2022-09-11T02:19:35.191Z,28.88
2022-09-11T02:22:06.316Z,28.84
2022-09-11T02:24:41.381Z,28.86
2022-09-11T02:27:19.600Z,28.90
2022-09-11T02:29:52.077Z,28.89
2022-09-11T02:32:25.565Z,28.91
2022-09-11T02:35:01.454Z,28.98
2022-09-11T02:37:41.714Z,28.97
2022-09-11T02:40:41.770Z,28.95
2022-09-11T02:43:34.170Z,29.01
2022-09-11T02:46:26.017Z,29.10
2022-09-11T02:49:27.213Z,29.16
2022-09-11T02:52:12.207Z,29.19
2022-09-11T02:55:04.821Z,29.26
2022-09-11T02:57:42.008Z,29.23
2022-09-11T03:00:16.231Z,29.29
2022-09-11T03:02:48.265Z,29.31
2022-09-11T03:05:21.283Z,29.37
2022-09-11T03:07:52.221Z,29.32
2022-09-11T03:10:23.895Z,29.43
2022-09-11T03:12:54.733Z,29.56
2022-09-11T03:15:26.337Z,29.54
2022-09-11T03:17:57.204Z,29.56
2022-09-11T03:20:28.816Z,29.53
2022-09-11T03:22:59.918Z,29.53
2022-09-11T03:25:32.340Z,29.55
2022-09-11T03:28:07.408Z,29.55
2022-09-11T03:30:38.680Z,29.62
2022-09-11T03:33:10.290Z,29.63
2022-09-11T03:35:41.234Z,29.65
2022-09-11T03:38:12.239Z,29.66
2022-09-11T03:40:47.211Z,29.69
2022-09-11T03:43:19.510Z,29.77
2022-09-11T03:45:54.636Z,29.81
2022-09-11T03:48:28.079Z,29.74
2022-09-11T03:50:58.920Z,29.78
2022-09-11T03:53:31.410Z,29.75
2022-09-11T03:56:07.665Z,29.76
2022-09-11T03:58:45.891Z,29.85
2022-09-11T04:01:21.495Z,29.85
2022-09-11T04:03:54.432Z,29.84
2022-09-11T04:06:38.825Z,29.89
2022-09-11T04:09:09.903Z,29.90
2022-09-11T04:11:42.753Z,29.92
2022-09-11T04:14:25.230Z,29.93
2022-09-11T04:16:59.536Z,29.95
2022-09-11T04:19:32.163Z,29.97
2022-09-11T04:22:03.752Z,30.02
2022-09-11T04:24:38.526Z,29.94
2022-09-11T04:27:09.585Z,29.99
2022-09-11T04:29:40.661Z,29.97
2022-09-11T04:32:14.481Z,29.96
2022-09-11T04:34:45.588Z,30.10
2022-09-11T04:37:16.537Z,30.08
2022-09-11T04:39:48.457Z,30.10
2022-09-11T04:42:19.112Z,30.17
2022-09-11T04:44:51.065Z,30.21
2022-09-11T04:47:21.958Z,30.12
2022-09-11T04:49:53.382Z,30.22
2022-09-11T04:52:26.011Z,30.27
2022-09-11T04:54:56.874Z,30.20
2022-09-11T04:57:27.705Z,30.35
2022-09-11T04:59:58.850Z,30.41
2022-09-11T05:02:29.809Z,30.36
2022-09-11T05:05:01.636Z,30.31
2022-09-11T05:07:32.495Z,30.35
2022-09-11T05:10:07.146Z,30.36
2022-09-11T05:12:38.135Z,30.44
2022-09-11T05:15:13.348Z,30.48
2022-09-11T05:17:46.927Z,30.37
2022-09-11T05:20:19.343Z,30.31
2022-09-11T05:22:50.543Z,30.32
2022-09-11T05:25:21.598Z,30.35
2022-09-11T05:27:52.940Z,30.38
2022-09-11T05:30:23.764Z,30.34
2022-09-11T05:32:58.274Z,30.37
2022-09-11T05:35:32.380Z,30.40
2022-09-11T05:38:04.092Z,30.47
2022-09-11T05:40:35.070Z,30.45
2022-09-11T05:43:06.189Z,30.41
2022-09-11T05:45:37.233Z,30.64
2022-09-11T05:48:07.842Z,30.74
2022-09-11T05:50:41.565Z,30.79
2022-09-11T05:53:12.480Z,30.78
2022-09-11T05:55:44.101Z,30.72
2022-09-11T05:58:15.024Z,30.79
2022-09-11T06:00:49.096Z,30.67
2022-09-11T06:03:24.237Z,30.57
2022-09-11T06:05:56.571Z,30.51
2022-09-11T06:08:27.961Z,30.67
2022-09-11T06:11:00.881Z,30.75
2022-09-11T06:13:39.552Z,30.66
2022-09-11T06:16:18.570Z,30.60
2022-09-11T06:18:54.127Z,30.61
2022-09-11T06:21:27.177Z,30.55
2022-09-11T06:24:08.165Z,30.52
2022-09-11T06:26:39.419Z,30.53
2022-09-11T06:29:17.074Z,30.52
2022-09-11T06:31:53.882Z,30.52
2022-09-11T06:34:28.073Z,30.51
2022-09-11T06:37:01.835Z,30.52
2022-09-11T06:39:32.796Z,30.54
2022-09-11T06:42:05.549Z,30.47
2022-09-11T06:44:40.075Z,30.49
2022-09-11T06:47:11.079Z,30.41
2022-09-11T06:49:41.584Z,30.43
2022-09-11T06:52:37.858Z,30.47
2022-09-11T06:55:17.190Z,30.40
2022-09-11T06:57:56.455Z,30.44
2022-09-11T07:00:30.296Z,30.43
2022-09-11T07:03:00.959Z,30.45
2022-09-11T07:05:32.478Z,30.38
2022-09-11T07:08:05.131Z,30.39
2022-09-11T07:10:38.958Z,30.48
2022-09-11T07:13:10.124Z,30.44
2022-09-11T07:15:42.667Z,30.47
2022-09-11T07:18:14.087Z,30.36
2022-09-11T07:20:44.979Z,30.41
2022-09-11T07:23:17.437Z,30.47
2022-09-11T07:25:48.786Z,30.46
2022-09-11T07:28:20.209Z,30.46
2022-09-11T07:30:52.817Z,30.46
2022-09-11T07:33:25.766Z,30.45
2022-09-11T07:35:58.231Z,30.45
2022-09-11T07:38:28.823Z,30.49
2022-09-11T07:40:59.946Z,30.58
2022-09-11T07:43:30.859Z,30.52
2022-09-11T07:46:01.963Z,30.58
2022-09-11T07:48:34.226Z,30.62
2022-09-11T07:51:07.941Z,30.65
2022-09-11T07:53:49.557Z,30.64
2022-09-11T07:56:26.741Z,30.62
2022-09-11T07:58:59.314Z,30.66
2022-09-11T08:01:32.825Z,30.67
2022-09-11T08:04:10.478Z,30.66
2022-09-11T08:06:41.882Z,30.62
2022-09-11T08:09:19.930Z,30.62
2022-09-11T08:12:01.277Z,30.59
2022-09-11T08:14:34.933Z,30.63
2022-09-11T08:17:14.374Z,30.65
2022-09-11T08:19:45.679Z,30.72
2022-09-11T08:22:18.900Z,30.64
2022-09-11T08:24:51.350Z,30.74
2022-09-11T08:27:23.197Z,30.71
2022-09-11T08:29:54.042Z,30.71
2022-09-11T08:32:25.588Z,30.74
2022-09-11T08:34:56.637Z,30.68
2022-09-11T08:37:27.702Z,30.72
2022-09-11T08:39:58.884Z,30.73
2022-09-11T08:42:29.946Z,30.70
2022-09-11T08:45:03.504Z,30.75
2022-09-11T08:47:44.185Z,30.77
2022-09-11T08:50:39.178Z,30.77
2022-09-11T08:53:19.997Z,30.73
2022-09-11T08:56:06.428Z,30.73
2022-09-11T08:59:11.863Z,30.76
2022-09-11T09:01:57.144Z,30.77
2022-09-11T09:05:03.536Z,30.72
2022-09-11T09:07:57.055Z,30.73
2022-09-11T09:10:32.053Z,30.72
2022-09-11T09:13:08.898Z,30.83
2022-09-11T09:15:47.991Z,30.76
2022-09-11T09:18:41.942Z,30.78
2022-09-11T09:21:13.355Z,30.78
2022-09-11T09:23:57.564Z,30.79
2022-09-11T09:26:43.288Z,30.75
2022-09-11T09:29:30.651Z,30.77
2022-09-11T09:32:10.418Z,30.81
2022-09-11T09:34:46.381Z,30.81
2022-09-11T09:37:23.217Z,30.86
2022-09-11T09:39:55.471Z,30.77
2022-09-11T09:42:47.978Z,30.73
2022-09-11T09:45:41.045Z,30.71
2022-09-11T09:48:14.746Z,30.80
2022-09-11T09:50:49.417Z,30.75
2022-09-11T09:53:32.553Z,30.79
2022-09-11T09:56:05.216Z,30.86
2022-09-11T09:58:42.613Z,30.83
2022-09-11T10:01:42.861Z,30.81
2022-09-11T10:04:19.456Z,30.83
2022-09-11T10:06:55.399Z,30.81
2022-09-11T10:09:30.806Z,30.80
2022-09-11T10:12:18.813Z,30.82
2022-09-11T10:15:06.655Z,30.83
2022-09-11T10:17:40.595Z,30.80
2022-09-11T10:20:25.681Z,30.76
2022-09-11T10:22:58.846Z,30.81
2022-09-11T10:25:32.687Z,30.74
2022-09-11T10:28:08.710Z,30.78
2022-09-11T10:30:44.005Z,30.72
2022-09-11T10:33:33.675Z,30.67
2022-09-11T10:36:08.519Z,30.71
2022-09-11T10:38:48.340Z,30.64
2022-09-11T10:41:29.096Z,30.63
2022-09-11T10:44:19.064Z,30.60
2022-09-11T10:47:25.629Z,30.58
2022-09-11T10:50:20.578Z,30.53
2022-09-11T10:53:01.562Z,30.51
2022-09-11T10:55:46.687Z,30.52
2022-09-11T10:58:22.831Z,30.53
2022-09-11T11:00:56.251Z,30.52
2022-09-11T11:03:31.054Z,30.52
2022-09-11T11:06:17.302Z,30.56
2022-09-11T11:09:01.708Z,30.57
2022-09-11T11:11:54.698Z,30.55
2022-09-11T11:14:52.768Z,30.50
2022-09-11T11:17:38.991Z,30.53
2022-09-11T11:20:28.218Z,30.52
2022-09-11T11:23:16.265Z,30.55
2022-09-11T11:26:16.530Z,30.53
2022-09-11T11:29:12.382Z,30.55
2022-09-11T11:32:04.260Z,30.51
2022-09-11T11:35:05.808Z,30.51
2022-09-11T11:37:46.043Z,30.54
2022-09-11T11:40:46.621Z,30.57
2022-09-11T11:43:20.620Z,30.56
2022-09-11T11:46:00.651Z,30.57
2022-09-11T11:48:39.247Z,30.55
2022-09-11T11:51:14.485Z,30.50
2022-09-11T11:54:10.750Z,30.54
2022-09-11T11:56:51.882Z,30.51
2022-09-11T11:59:53.522Z,30.55
2022-09-11T12:02:27.800Z,30.48
2022-09-11T12:05:08.539Z,30.56
2022-09-11T12:07:42.002Z,30.53
2022-09-11T12:10:24.976Z,30.49
2022-09-11T12:13:10.062Z,30.49
2022-09-11T12:15:41.297Z,30.53
2022-09-11T12:18:14.556Z,30.50
2022-09-11T12:20:47.820Z,30.53
2022-09-11T12:23:34.004Z,30.53
2022-09-11T12:26:13.943Z,30.53
2022-09-11T12:28:45.097Z,30.54
2022-09-11T12:31:18.738Z,30.52
2022-09-11T12:33:56.988Z,30.51
2022-09-11T12:36:49.441Z,30.48
2022-09-11T12:39:30.142Z,30.51
2022-09-11T12:42:31.319Z,30.52
2022-09-11T12:45:02.971Z,30.49
2022-09-11T12:47:38.900Z,30.49
2022-09-11T12:50:16.714Z,30.47
2022-09-11T12:53:00.714Z,30.45
2022-09-11T12:55:57.155Z,30.46
2022-09-11T12:58:31.340Z,30.48
2022-09-11T13:01:16.080Z,30.50
2022-09-11T13:04:05.073Z,30.50
2022-09-11T13:06:50.487Z,30.44
2022-09-11T13:09:31.827Z,30.43
2022-09-11T13:12:44.396Z,30.40
2022-09-11T13:15:43.796Z,30.40
2022-09-11T13:18:46.575Z,30.37
2022-09-11T13:21:24.437Z,30.36
2022-09-11T13:23:57.417Z,30.36
2022-09-11T13:26:34.021Z,30.43
2022-09-11T13:29:05.223Z,30.45
2022-09-11T13:31:37.681Z,30.45
2022-09-11T13:34:16.740Z,30.44
2022-09-11T13:36:52.404Z,30.39
2022-09-11T13:39:32.859Z,30.39
2022-09-11T13:42:05.906Z,30.39
2022-09-11T13:44:59.996Z,30.45
2022-09-11T13:47:34.843Z,30.45
2022-09-11T13:50:09.729Z,30.45
2022-09-11T13:52:41.026Z,30.45
2022-09-11T13:55:22.000Z,30.44
2022-09-11T13:58:03.571Z,30.43
2022-09-11T14:00:49.416Z,30.42
2022-09-11T14:03:36.788Z,30.40
2022-09-11T14:06:21.774Z,30.41
2022-09-11T14:08:59.082Z,30.39
2022-09-11T14:11:34.684Z,30.43
2022-09-11T14:14:16.903Z,30.47
2022-09-11T14:16:53.821Z,30.43
2022-09-11T14:19:33.137Z,30.37
2022-09-11T14:22:16.874Z,30.43
2022-09-11T14:25:05.633Z,30.40
2022-09-11T14:27:40.878Z,30.41
2022-09-11T14:30:47.880Z,30.40
2022-09-11T14:33:20.553Z,30.37
2022-09-11T14:35:52.966Z,30.39
2022-09-11T14:38:26.605Z,30.40
2022-09-11T14:41:04.975Z,30.40
2022-09-11T14:43:38.129Z,30.41
2022-09-11T14:46:09.395Z,30.40
2022-09-11T14:48:39.911Z,30.41
2022-09-11T14:51:13.529Z,30.37
2022-09-11T14:53:45.950Z,30.34
2022-09-11T14:56:16.983Z,30.32
2022-09-11T14:58:47.839Z,30.29
2022-09-11T15:01:18.783Z,30.29
2022-09-11T15:03:49.564Z,30.28
2022-09-11T15:06:23.301Z,30.27
2022-09-11T15:08:54.881Z,30.28
2022-09-11T15:11:25.671Z,30.27
2022-09-11T15:14:15.950Z,30.27
2022-09-11T15:16:49.878Z,30.26
2022-09-11T15:19:20.284Z,30.26
2022-09-11T15:21:51.051Z,30.25
2022-09-11T15:24:22.014Z,30.26
2022-09-11T15:26:55.318Z,30.24
2022-09-11T15:29:31.359Z,30.24
2022-09-11T15:32:04.593Z,30.25
2022-09-11T15:34:36.191Z,30.25
2022-09-11T15:37:07.421Z,30.25
2022-09-11T15:39:38.370Z,30.25
2022-09-11T15:42:10.209Z,30.24
2022-09-11T15:44:41.246Z,30.23
2022-09-11T15:47:14.226Z,30.23
2022-09-11T15:49:50.573Z,30.23
2022-09-11T15:52:22.222Z,30.21
2022-09-11T15:54:53.672Z,30.21
2022-09-11T15:57:24.234Z,30.20
2022-09-11T15:59:55.167Z,30.20
2022-09-11T16:02:26.677Z,30.18
2022-09-11T16:04:57.408Z,30.20
2022-09-11T16:07:28.262Z,30.19
2022-09-11T16:09:59.131Z,30.19
2022-09-11T16:12:29.951Z,30.19
2022-09-11T16:15:00.844Z,30.19
2022-09-11T16:17:35.020Z,30.17
2022-09-11T16:20:05.934Z,30.18
2022-09-11T16:22:37.314Z,30.17
2022-09-11T16:25:08.607Z,30.18
2022-09-11T16:27:39.334Z,30.16
2022-09-11T16:33:01.385Z,30.11
2022-09-11T16:35:33.256Z,30.11
2022-09-11T16:38:04.133Z,30.07
2022-09-11T16:40:34.939Z,30.06
2022-09-11T16:43:07.814Z,30.07
2022-09-11T16:45:39.560Z,30.07
2022-09-11T16:48:10.591Z,30.07
2022-09-11T16:50:41.299Z,30.05
2022-09-11T16:53:13.257Z,30.06
2022-09-11T16:55:45.302Z,30.03
2022-09-11T16:58:16.972Z,30.01
2022-09-11T17:00:48.151Z,30.01
2022-09-11T17:03:20.217Z,30.00
2022-09-11T17:05:53.401Z,30.00
2022-09-11T17:08:24.900Z,30.00
2022-09-11T17:11:00.539Z,29.98
2022-09-11T17:13:31.961Z,29.98
2022-09-11T17:16:12.615Z,29.96
2022-09-11T17:18:52.474Z,29.96
2022-09-11T17:21:25.623Z,29.93
2022-09-11T17:23:58.699Z,29.92
2022-09-11T17:26:29.572Z,29.91
2022-09-11T17:29:05.178Z,29.91
2022-09-11T17:31:36.216Z,29.87
2022-09-11T17:34:07.199Z,29.86
2022-09-11T17:36:38.319Z,29.87
2022-09-11T17:39:09.989Z,29.87
2022-09-11T17:41:40.741Z,29.86
2022-09-11T17:44:11.669Z,29.84
2022-09-11T17:46:42.561Z,29.86
2022-09-11T17:49:13.428Z,29.85
2022-09-11T17:51:44.194Z,29.85
2022-09-11T17:54:15.202Z,29.84
2022-09-11T17:56:46.089Z,29.84
2022-09-11T17:59:16.819Z,29.83
2022-09-11T18:01:47.617Z,29.80
2022-09-11T18:04:21.061Z,29.79
2022-09-11T18:06:52.153Z,29.82
2022-09-11T18:09:23.203Z,29.81
2022-09-11T18:11:56.652Z,29.81
2022-09-11T18:14:28.654Z,29.81
2022-09-11T18:16:59.858Z,29.79
2022-09-11T18:19:31.032Z,29.81
2022-09-11T18:22:02.321Z,29.77
2022-09-11T18:24:33.009Z,29.80
2022-09-11T18:27:03.900Z,29.79
2022-09-11T18:29:35.435Z,29.78
2022-09-11T18:32:06.322Z,29.77
2022-09-11T18:34:37.084Z,29.77
2022-09-11T18:37:07.992Z,29.77
2022-09-11T18:39:38.708Z,29.75
2022-09-11T18:42:09.814Z,29.73
2022-09-11T18:44:40.694Z,29.75
2022-09-11T18:47:12.151Z,29.71
2022-09-11T18:49:43.079Z,29.71
2022-09-11T18:52:15.324Z,29.71
2022-09-11T18:54:46.092Z,29.67
2022-09-11T18:57:20.741Z,29.67
2022-09-11T18:59:54.539Z,29.68
2022-09-11T19:02:25.507Z,29.66
2022-09-11T19:04:56.382Z,29.66
2022-09-11T19:07:27.310Z,29.65
2022-09-11T19:10:00.161Z,29.68
2022-09-11T19:12:31.296Z,29.69
2022-09-11T19:15:02.259Z,29.67
2022-09-11T19:17:32.974Z,29.66
2022-09-11T19:20:03.894Z,29.62
2022-09-11T19:22:34.776Z,29.64
2022-09-11T19:25:06.187Z,29.62
2022-09-11T19:27:39.087Z,29.60
2022-09-11T19:30:11.486Z,29.62
2022-09-11T19:32:42.520Z,29.60
2022-09-11T19:35:13.534Z,29.59
2022-09-11T19:37:44.892Z,29.58
2022-09-11T19:40:16.808Z,29.58
2022-09-11T19:42:47.477Z,29.56
2022-09-11T19:45:18.394Z,29.56
2022-09-11T19:47:50.009Z,29.55
2022-09-11T19:50:24.581Z,29.57
2022-09-11T19:52:55.472Z,29.54
2022-09-11T19:55:26.229Z,29.55
2022-09-11T19:57:57.758Z,29.56
2022-09-11T20:00:28.568Z,29.57
2022-09-11T20:03:00.419Z,29.54
2022-09-11T20:05:31.662Z,29.53
2022-09-11T20:08:02.464Z,29.51
2022-09-11T20:10:33.226Z,29.53
2022-09-11T20:13:03.854Z,29.51
2022-09-11T20:15:37.600Z,29.52
2022-09-11T20:18:12.259Z,29.50
2022-09-11T20:20:45.463Z,29.50
2022-09-11T20:23:16.384Z,29.50
2022-09-11T20:25:47.167Z,29.47
2022-09-11T20:28:18.728Z,29.49
2022-09-11T20:30:50.288Z,29.50
2022-09-11T20:33:20.619Z,29.49
2022-09-11T20:35:51.585Z,29.45
2022-09-11T20:38:22.447Z,29.46
2022-09-11T20:40:53.505Z,29.45
2022-09-11T20:43:24.429Z,29.47
2022-09-11T20:45:57.248Z,29.49
2022-09-11T20:48:28.077Z,29.50
2022-09-11T20:51:04.115Z,29.49
2022-09-11T20:53:34.988Z,29.46
2022-09-11T20:56:13.964Z,29.45
2022-09-11T20:58:45.525Z,29.44
2022-09-11T21:01:19.732Z,29.46
2022-09-11T21:03:53.262Z,29.49
2022-09-11T21:06:26.532Z,29.45
2022-09-11T21:08:59.378Z,29.51
2022-09-11T21:11:32.231Z,29.52
2022-09-11T21:14:03.420Z,29.48
2022-09-11T21:16:33.962Z,29.46
2022-09-11T21:19:09.921Z,29.45
2022-09-11T21:21:40.848Z,29.45
2022-09-11T21:24:17.018Z,29.45
2022-09-11T21:26:47.954Z,29.44
2022-09-11T21:29:18.767Z,29.44
2022-09-11T21:31:49.536Z,29.45
2022-09-11T21:34:20.457Z,29.44
2022-09-11T21:36:51.325Z,29.43
2022-09-11T21:39:22.122Z,29.44
2022-09-11T21:41:52.840Z,29.43
2022-09-11T21:44:24.470Z,29.46
2022-09-11T21:46:55.363Z,29.41
2022-09-11T21:49:26.149Z,29.42
2022-09-11T21:51:56.830Z,29.42
2022-09-11T21:54:31.740Z,29.42
2022-09-11T21:57:02.639Z,29.41
2022-09-11T21:59:33.936Z,29.43
2022-09-11T22:02:04.782Z,29.44
2022-09-11T22:04:35.828Z,29.47
2022-09-11T22:07:07.511Z,29.43
2022-09-11T22:09:38.452Z,29.47
2022-09-11T22:12:09.531Z,29.45
2022-09-11T22:14:40.630Z,29.42
2022-09-11T22:17:11.498Z,29.43
2022-09-11T22:19:42.319Z,29.43
2022-09-11T22:22:13.165Z,29.43
2022-09-11T22:24:44.245Z,29.44
2022-09-11T22:27:15.411Z,29.45
2022-09-11T22:29:47.101Z,29.50
2022-09-11T22:32:18.023Z,29.50
2022-09-11T22:34:48.889Z,29.50
2022-09-11T22:37:19.893Z,29.50
2022-09-11T22:39:50.777Z,29.46
2022-09-11T22:42:21.563Z,29.46
2022-09-11T22:44:53.780Z,29.44
2022-09-11T22:47:24.880Z,29.43
2022-09-11T22:51:30.740Z,29.38
2022-09-11T22:54:01.838Z,29.34
2022-09-11T22:56:32.889Z,29.33
2022-09-11T22:59:03.650Z,29.28
2022-09-11T23:01:34.652Z,29.30
2022-09-11T23:04:06.512Z,29.27
2022-09-11T23:06:55.805Z,29.24
2022-09-11T23:09:26.655Z,29.23
2022-09-11T23:11:58.292Z,29.24
2022-09-11T23:14:29.116Z,29.29
2022-09-11T23:16:59.825Z,29.29
2022-09-11T23:19:31.481Z,29.29
2022-09-11T23:22:02.938Z,29.27
2022-09-11T23:24:33.920Z,29.29
2022-09-11T23:27:04.800Z,29.27
2022-09-11T23:29:35.816Z,29.27
2022-09-11T23:32:06.907Z,29.29
2022-09-11T23:34:38.086Z,29.28
2022-09-11T23:37:08.838Z,29.33
2022-09-11T23:39:39.825Z,29.27
2022-09-11T23:42:10.576Z,29.29
2022-09-11T23:44:41.264Z,29.28
2022-09-11T23:47:12.191Z,29.28
2022-09-11T23:49:43.776Z,29.29
2022-09-11T23:52:14.606Z,29.26
2022-09-11T23:54:45.517Z,29.26
2022-09-11T23:57:16.589Z,29.25
2022-09-11T23:59:56.565Z,29.27
